Portada
METAR-TAF:

METAR-TAF

Aeroports :

Mannheim, Alemanya

latitud: 49-28-21N, longitud: 008-30-56E, altitud: 100 m

Observació

L'informe es va fer fa 3 hores i 4 minuts, a les 20:20 UTC
Vent 9 kt del Oest/Sud-Oest
Temperatura 5°C
Humitat 70%
Pressió 1008 hPa
Visibilitat 10 km o més
Escasses núvols a una alçada de 4500 ft
Cel ennuvolat a una alçada de 5300 ft

METAR: EDFM 262020Z 24009KT 9999 FEW045 BKN053 05/M00 Q1008

Hora: 00:24 (23:24 UTC)

Pronòstic

L'informe es va fer fa 6 hores i 24 minuts, a les 17:00 UTC
Pronòstic vàlid del 26 a les 18 UTC al 26 a les 21 UTC
Vent 8 kt del Sud-Oest
Visibilitat 10 km o més
Cel ennuvolat a una alçada de 2500 ft

TAF: EDFM 261700Z 2618/2621 22008KT 9999 BKN025

Observacions i pronòstics meteorològics de més de 4000 aeroports (METAR i TAF).

Les estacions disponibles són els punts grocs i vermells al mapa.

Posi el ratolí al punt desitjat per veure el nom de l'estació.

Feu clic per veure les observacions i els pronòstics meteorològics.

Per canviar el mapa: feu clic els botons verds amb una creu de color negre per apropar; al botó verd amb un guió per allunyar la imatge; o en les fletxes verdes per a mapes adjacents.


METAR-TAF: